Priwall — V2OX8 — position and weather

sailwx.info

Track history (hours):
 
Tides and Currents Weather Stations Pressure Air Temp Water Temp Dewpoint Dewpoint Depression Visibility Wind Speed Wind Dir Waves Ship Positions

Priwall

Last reported at 2014-Dec-18 03:06 UTC. Time now 2014-Dec-19 15:49 UTC.
Position N 43°44' W 005°30'.

Length 88 m; draft 3.1 m.

Type: Cargo ship. MMSI: 304739000.

Date/timePositionNaut miles runAvg speedWind from/ knotsBaromVisibWave heightAir tempDewpointWater temp
2014-Dec-18 03:06N 43°44' W 005°30'7 7.2
2014-Dec-18 02:05N 43°43' W 005°20'14 0.3
2014-Dec-16 05:31N 43°41' W 005°01'1210.6
2014-Dec-16 04:23N 43°43' W 005°18'910.4
2014-Dec-16 03:32N 43°44' W 005°30'1010.4
2014-Dec-16 02:32N 43°45' W 005°44'  
2014-Dec-11 00:24N 39°08' W 009°48'6 7.1
2014-Dec-10 23:31N 39°01' W 009°49'8 7.2
2014-Dec-10 22:21N 38°53' W 009°51'6 6.9
2014-Dec-10 21:33N 38°47' W 009°51'7 6.9
2014-Dec-10 20:32N 38°41' W 009°50'7 7.1
2014-Dec-10 19:32N 38°33' W 009°51'7 7.2
2014-Dec-10 18:33N 38°26' W 009°50'24 7.8
2014-Dec-10 15:27N 38°02' W 009°51'31 7.5
2014-Dec-10 11:23N 37°32' W 009°52'7 7.3
2014-Dec-10 10:29N 37°25' W 009°52'  
Track history (hours):
 
Tides and Currents Weather Stations Pressure Air Temp Water Temp Dewpoint Dewpoint Depression Visibility Wind Speed Wind Dir Waves Ship Positions

Priwall

Last reported at 2014-Dec-18 03:06 UTC. Time now 2014-Dec-19 15:49 UTC.
Position N 43°44' W 005°30'.

Length 88 m; draft 3.1 m.

Type: Cargo ship. MMSI: 304739000.

Date/timePositionNaut miles runAvg speedWind from/ knotsBaromVisibWave heightAir tempDewpointWater temp
2014-Dec-18 03:06N 43°44' W 005°30'7 7.2
2014-Dec-18 02:05N 43°43' W 005°20'14 0.3
2014-Dec-16 05:31N 43°41' W 005°01'1210.6
2014-Dec-16 04:23N 43°43' W 005°18'910.4
2014-Dec-16 03:32N 43°44' W 005°30'1010.4
2014-Dec-16 02:32N 43°45' W 005°44'  
2014-Dec-11 00:24N 39°08' W 009°48'6 7.1
2014-Dec-10 23:31N 39°01' W 009°49'8 7.2
2014-Dec-10 22:21N 38°53' W 009°51'6 6.9
2014-Dec-10 21:33N 38°47' W 009°51'7 6.9
2014-Dec-10 20:32N 38°41' W 009°50'7 7.1
2014-Dec-10 19:32N 38°33' W 009°51'7 7.2
2014-Dec-10 18:33N 38°26' W 009°50'24 7.8
2014-Dec-10 15:27N 38°02' W 009°51'31 7.5
2014-Dec-10 11:23N 37°32' W 009°52'7 7.3
2014-Dec-10 10:29N 37°25' W 009°52'  

Dump ship's entire track history